sensor_id;sensor_type;location;lat;lon;timestamp;pressure;altitude;pressure_sealevel;temperature;humidity
51271;BME280;37744;50.960;4.136;2022-09-02T00:01:00;101068.91;;;18.16;54.11
51271;BME280;37744;50.960;4.136;2022-09-02T00:03:32;101074.22;;;18.16;54.19
51271;BME280;37744;50.960;4.136;2022-09-02T00:05:59;101071.94;;;18.10;54.48
51271;BME280;37744;50.960;4.136;2022-09-02T00:08:25;101072.34;;;18.03;54.92
51271;BME280;37744;50.960;4.136;2022-09-02T00:10:51;101069.06;;;17.98;55.05
51271;BME280;37744;50.960;4.136;2022-09-02T00:13:18;101063.38;;;17.90;55.36
51271;BME280;37744;50.960;4.136;2022-09-02T00:15:46;101060.72;;;17.90;55.35
51271;BME280;37744;50.960;4.136;2022-09-02T00:18:13;101057.66;;;17.82;55.63
51271;BME280;37744;50.960;4.136;2022-09-02T00:20:40;101058.69;;;17.79;55.92
51271;BME280;37744;50.960;4.136;2022-09-02T00:23:06;101052.72;;;17.75;56.15
51271;BME280;37744;50.960;4.136;2022-09-02T00:25:33;101053.09;;;17.69;56.47
51271;BME280;37744;50.960;4.136;2022-09-02T00:27:59;101054.81;;;17.70;56.39
51271;BME280;37744;50.960;4.136;2022-09-02T00:30:24;101055.84;;;17.68;56.98
51271;BME280;37744;50.960;4.136;2022-09-02T00:32:50;101055.00;;;17.67;56.54
51271;BME280;37744;50.960;4.136;2022-09-02T00:35:15;101048.16;;;17.63;57.32
51271;BME280;37744;50.960;4.136;2022-09-02T00:37:41;101050.91;;;17.61;56.81
51271;BME280;37744;50.960;4.136;2022-09-02T00:40:07;101047.59;;;17.58;57.11
51271;BME280;37744;50.960;4.136;2022-09-02T00:42:34;101054.41;;;17.47;57.45
51271;BME280;37744;50.960;4.136;2022-09-02T00:45:00;101046.22;;;17.50;57.52
51271;BME280;37744;50.960;4.136;2022-09-02T00:47:27;101044.81;;;17.45;57.82
51271;BME280;37744;50.960;4.136;2022-09-02T00:49:55;101048.78;;;17.38;57.90
51271;BME280;37744;50.960;4.136;2022-09-02T00:52:30;101041.56;;;17.40;57.93
51271;BME280;37744;50.960;4.136;2022-09-02T00:55:05;101042.41;;;17.40;58.08
51271;BME280;37744;50.960;4.136;2022-09-02T00:57:59;101046.22;;;17.36;58.32
51271;BME280;37744;50.960;4.136;2022-09-02T01:00:26;101039.72;;;17.26;58.66
51271;BME280;37744;50.960;4.136;2022-09-02T01:02:58;101034.22;;;17.29;58.57
51271;BME280;37744;50.960;4.136;2022-09-02T01:05:26;101039.53;;;17.29;58.45
51271;BME280;37744;50.960;4.136;2022-09-02T01:07:55;101043.91;;;17.30;58.61
51271;BME280;37744;50.960;4.136;2022-09-02T01:10:32;101033.06;;;17.18;59.31
51271;BME280;37744;50.960;4.136;2022-09-02T01:13:01;101040.28;;;17.16;59.29
51271;BME280;37744;50.960;4.136;2022-09-02T01:15:32;101039.25;;;17.19;59.30
51271;BME280;37744;50.960;4.136;2022-09-02T01:18:01;101036.53;;;17.04;59.52
51271;BME280;37744;50.960;4.136;2022-09-02T01:20:26;101037.19;;;17.08;59.67
51271;BME280;37744;50.960;4.136;2022-09-02T01:22:53;101035.50;;;17.07;59.95
51271;BME280;37744;50.960;4.136;2022-09-02T01:25:25;101035.34;;;17.10;59.77
51271;BME280;37744;50.960;4.136;2022-09-02T01:27:52;101038.41;;;17.02;59.99
51271;BME280;37744;50.960;4.136;2022-09-02T01:30:23;101026.69;;;17.06;59.82
51271;BME280;37744;50.960;4.136;2022-09-02T01:32:49;101039.47;;;17.00;60.17
51271;BME280;37744;50.960;4.136;2022-09-02T01:35:16;101031.25;;;16.88;60.67
51271;BME280;37744;50.960;4.136;2022-09-02T01:37:43;101024.22;;;16.87;60.70
51271;BME280;37744;50.960;4.136;2022-09-02T01:40:12;101032.94;;;16.89;60.76
51271;BME280;37744;50.960;4.136;2022-09-02T01:42:39;101027.44;;;16.92;60.71
51271;BME280;37744;50.960;4.136;2022-09-02T01:45:05;101021.66;;;16.86;60.94
51271;BME280;37744;50.960;4.136;2022-09-02T01:47:31;101022.50;;;16.86;60.93
51271;BME280;37744;50.960;4.136;2022-09-02T01:49:57;101020.13;;;16.81;60.95
51271;BME280;37744;50.960;4.136;2022-09-02T01:52:25;101021.16;;;16.79;61.09
51271;BME280;37744;50.960;4.136;2022-09-02T01:54:51;101014.13;;;16.78;61.50
51271;BME280;37744;50.960;4.136;2022-09-02T01:57:16;101014.31;;;16.75;61.40
51271;BME280;37744;50.960;4.136;2022-09-02T01:59:42;101023.88;;;16.77;61.40
51271;BME280;37744;50.960;4.136;2022-09-02T02:02:11;101014.47;;;16.72;61.63
51271;BME280;37744;50.960;4.136;2022-09-02T02:04:37;101018.25;;;16.67;61.65
51271;BME280;37744;50.960;4.136;2022-09-02T02:07:03;101018.44;;;16.64;61.95
51271;BME280;37744;50.960;4.136;2022-09-02T02:09:29;101013.13;;;16.64;61.93
51271;BME280;37744;50.960;4.136;2022-09-02T02:11:54;101014.22;;;16.60;62.17
51271;BME280;37744;50.960;4.136;2022-09-02T02:14:20;101009.97;;;16.58;62.29
51271;BME280;37744;50.960;4.136;2022-09-02T02:16:46;101009.28;;;16.54;62.50
51271;BME280;37744;50.960;4.136;2022-09-02T02:19:12;100999.25;;;16.43;62.73
51271;BME280;37744;50.960;4.136;2022-09-02T02:21:38;101000.81;;;16.47;62.62
51271;BME280;37744;50.960;4.136;2022-09-02T02:24:04;101005.09;;;16.34;63.05
51271;BME280;37744;50.960;4.136;2022-09-02T02:26:30;101006.13;;;16.31;63.35
51271;BME280;37744;50.960;4.136;2022-09-02T02:28:56;100999.13;;;16.30;63.37
51271;BME280;37744;50.960;4.136;2022-09-02T02:31:21;100999.00;;;16.32;63.31
51271;BME280;37744;50.960;4.136;2022-09-02T02:33:48;101000.47;;;16.37;63.21
51271;BME280;37744;50.960;4.136;2022-09-02T02:36:14;100994.31;;;16.37;63.19
51271;BME280;37744;50.960;4.136;2022-09-02T02:38:39;100998.00;;;16.34;63.51
51271;BME280;37744;50.960;4.136;2022-09-02T02:41:06;100995.34;;;16.34;63.43
51271;BME280;37744;50.960;4.136;2022-09-02T02:43:34;100999.81;;;16.34;63.50
51271;BME280;37744;50.960;4.136;2022-09-02T02:45:59;100990.47;;;16.27;63.64
51271;BME280;37744;50.960;4.136;2022-09-02T02:48:25;101002.84;;;16.26;63.79
51271;BME280;37744;50.960;4.136;2022-09-02T02:50:51;100997.91;;;16.20;64.13
51271;BME280;37744;50.960;4.136;2022-09-02T02:53:16;100997.91;;;16.20;64.24
51271;BME280;37744;50.960;4.136;2022-09-02T02:55:43;100994.63;;;16.15;64.17
51271;BME280;37744;50.960;4.136;2022-09-02T02:58:08;101004.47;;;16.13;64.51
51271;BME280;37744;50.960;4.136;2022-09-02T03:00:34;101004.72;;;16.08;64.82
51271;BME280;37744;50.960;4.136;2022-09-02T03:03:03;100993.59;;;16.01;65.06
51271;BME280;37744;50.960;4.136;2022-09-02T03:05:30;100999.84;;;16.00;65.20
51271;BME280;37744;50.960;4.136;2022-09-02T03:07:55;101000.03;;;15.97;65.01
51271;BME280;37744;50.960;4.136;2022-09-02T03:10:21;100994.97;;;15.92;65.37
51271;BME280;37744;50.960;4.136;2022-09-02T03:12:47;100998.38;;;15.94;65.39
51271;BME280;37744;50.960;4.136;2022-09-02T03:15:14;100994.03;;;15.93;65.60
51271;BME280;37744;50.960;4.136;2022-09-02T03:17:42;101001.22;;;15.91;65.78
51271;BME280;37744;50.960;4.136;2022-09-02T03:20:08;100993.53;;;15.85;66.09
51271;BME280;37744;50.960;4.136;2022-09-02T03:22:35;101000.72;;;15.83;65.93
51271;BME280;37744;50.960;4.136;2022-09-02T03:25:04;100989.44;;;15.79;66.31
51271;BME280;37744;50.960;4.136;2022-09-02T03:27:30;100988.06;;;15.72;66.56
51271;BME280;37744;50.960;4.136;2022-09-02T03:29:55;100990.97;;;15.67;66.82
51271;BME280;37744;50.960;4.136;2022-09-02T03:32:21;100986.84;;;15.62;67.07
51271;BME280;37744;50.960;4.136;2022-09-02T03:34:46;100993.06;;;15.61;67.09
51271;BME280;37744;50.960;4.136;2022-09-02T03:37:11;100988.63;;;15.61;67.02
51271;BME280;37744;50.960;4.136;2022-09-02T03:39:37;100987.84;;;15.59;67.25
51271;BME280;37744;50.960;4.136;2022-09-02T03:42:04;100988.09;;;15.54;67.72
51271;BME280;37744;50.960;4.136;2022-09-02T03:44:29;100989.03;;;15.53;67.93
51271;BME280;37744;50.960;4.136;2022-09-02T03:46:54;100976.19;;;15.46;67.98
51271;BME280;37744;50.960;4.136;2022-09-02T03:49:20;100975.31;;;15.45;67.91
51271;BME280;37744;50.960;4.136;2022-09-02T03:51:45;100973.78;;;15.41;68.24
51271;BME280;37744;50.960;4.136;2022-09-02T03:54:10;100976.59;;;15.38;68.46
51271;BME280;37744;50.960;4.136;2022-09-02T03:56:36;100968.72;;;15.36;68.27
51271;BME280;37744;50.960;4.136;2022-09-02T03:59:02;100974.25;;;15.32;68.32
51271;BME280;37744;50.960;4.136;2022-09-02T04:01:27;100972.53;;;15.31;68.52
51271;BME280;37744;50.960;4.136;2022-09-02T04:03:53;100963.19;;;15.23;68.97
51271;BME280;37744;50.960;4.136;2022-09-02T04:06:21;100974.72;;;15.22;69.13
51271;BME280;37744;50.960;4.136;2022-09-02T04:08:47;100962.53;;;15.20;69.22
51271;BME280;37744;50.960;4.136;2022-09-02T04:11:16;100960.72;;;15.20;69.24
51271;BME280;37744;50.960;4.136;2022-09-02T04:13:43;100964.13;;;15.22;69.28
51271;BME280;37744;50.960;4.136;2022-09-02T04:16:11;100957.31;;;15.18;69.39
51271;BME280;37744;50.960;4.136;2022-09-02T04:18:37;100955.75;;;15.14;69.56
51271;BME280;37744;50.960;4.136;2022-09-02T04:21:03;100958.41;;;15.14;69.77
51271;BME280;37744;50.960;4.136;2022-09-02T04:23:30;100954.06;;;15.13;69.89
51271;BME280;37744;50.960;4.136;2022-09-02T04:25:57;100953.25;;;15.11;70.09
51271;BME280;37744;50.960;4.136;2022-09-02T04:28:22;100961.19;;;15.11;70.38
51271;BME280;37744;50.960;4.136;2022-09-02T04:30:49;100950.53;;;15.12;70.37
51271;BME280;37744;50.960;4.136;2022-09-02T04:33:15;100947.88;;;15.12;70.47
51271;BME280;37744;50.960;4.136;2022-09-02T04:35:43;100951.47;;;15.11;70.46
51271;BME280;37744;50.960;4.136;2022-09-02T04:38:10;100954.59;;;15.02;71.20
51271;BME280;37744;50.960;4.136;2022-09-02T04:40:39;100945.31;;;15.11;70.67
51271;BME280;37744;50.960;4.136;2022-09-02T04:43:05;100944.38;;;15.12;70.61
51271;BME280;37744;50.960;4.136;2022-09-02T04:45:31;100952.19;;;15.15;70.64
51271;BME280;37744;50.960;4.136;2022-09-02T04:47:56;100949.38;;;15.18;70.71
51271;BME280;37744;50.960;4.136;2022-09-02T04:50:21;100942.44;;;15.16;70.65
51271;BME280;37744;50.960;4.136;2022-09-02T04:52:47;100948.44;;;15.19;70.69
51271;BME280;37744;50.960;4.136;2022-09-02T04:55:12;100951.06;;;15.19;70.53
51271;BME280;37744;50.960;4.136;2022-09-02T04:57:37;100942.44;;;15.16;70.86
51271;BME280;37744;50.960;4.136;2022-09-02T05:00:05;100947.97;;;15.11;71.09
51271;BME280;37744;50.960;4.136;2022-09-02T05:02:31;100948.91;;;15.10;71.21
51271;BME280;37744;50.960;4.136;2022-09-02T05:04:57;100944.31;;;15.13;70.94
51271;BME280;37744;50.960;4.136;2022-09-02T05:07:22;100949.44;;;15.17;71.06
51271;BME280;37744;50.960;4.136;2022-09-02T05:09:48;100947.59;;;15.19;71.14
51271;BME280;37744;50.960;4.136;2022-09-02T05:12:13;100946.56;;;15.21;71.19
51271;BME280;37744;50.960;4.136;2022-09-02T05:14:39;100941.44;;;15.18;71.53
51271;BME280;37744;50.960;4.136;2022-09-02T05:17:04;100952.78;;;15.20;71.59
51271;BME280;37744;50.960;4.136;2022-09-02T05:19:30;100948.25;;;15.22;71.67
51271;BME280;37744;50.960;4.136;2022-09-02T05:21:55;100946.31;;;15.26;71.47
51271;BME280;37744;50.960;4.136;2022-09-02T05:24:23;100946.41;;;15.24;71.64
51271;BME280;37744;50.960;4.136;2022-09-02T05:26:49;100945.53;;;15.24;71.71
51271;BME280;37744;50.960;4.136;2022-09-02T05:29:16;100948.91;;;15.27;71.85
51271;BME280;37744;50.960;4.136;2022-09-02T05:31:45;100949.28;;;15.20;72.36
51271;BME280;37744;50.960;4.136;2022-09-02T05:34:10;100950.13;;;15.20;72.45
51271;BME280;37744;50.960;4.136;2022-09-02T05:36:36;100955.34;;;15.22;72.33
51271;BME280;37744;50.960;4.136;2022-09-02T05:39:01;100955.25;;;15.23;72.28
51271;BME280;37744;50.960;4.136;2022-09-02T05:41:27;100955.44;;;15.20;72.37
51271;BME280;37744;50.960;4.136;2022-09-02T05:43:55;100957.13;;;15.21;72.70
51271;BME280;37744;50.960;4.136;2022-09-02T05:46:23;100953.41;;;15.25;72.57
51271;BME280;37744;50.960;4.136;2022-09-02T05:48:50;100955.03;;;15.28;72.58
51271;BME280;37744;50.960;4.136;2022-09-02T05:52:00;100957.59;;;15.30;72.42
51271;BME280;37744;50.960;4.136;2022-09-02T05:54:34;100958.53;;;15.29;72.73
51271;BME280;37744;50.960;4.136;2022-09-02T05:57:03;100959.38;;;15.29;72.83
51271;BME280;37744;50.960;4.136;2022-09-02T05:59:30;100952.16;;;15.33;73.00
51271;BME280;37744;50.960;4.136;2022-09-02T06:01:56;100950.19;;;15.36;72.80
51271;BME280;37744;50.960;4.136;2022-09-02T06:04:22;100949.38;;;15.36;72.80
51271;BME280;37744;50.960;4.136;2022-09-02T06:06:49;100955.25;;;15.41;72.86
51271;BME280;37744;50.960;4.136;2022-09-02T06:09:17;100952.31;;;15.47;72.79
51271;BME280;37744;50.960;4.136;2022-09-02T06:11:44;100949.78;;;15.44;73.00
51271;BME280;37744;50.960;4.136;2022-09-02T06:14:12;100955.53;;;15.52;72.88
51271;BME280;37744;50.960;4.136;2022-09-02T06:16:39;100947.28;;;15.59;72.75
51271;BME280;37744;50.960;4.136;2022-09-02T06:19:05;100943.53;;;15.63;72.59
51271;BME280;37744;50.960;4.136;2022-09-02T06:21:31;100940.63;;;15.67;72.65
51271;BME280;37744;50.960;4.136;2022-09-02T06:23:57;100939.44;;;15.73;72.64
51271;BME280;37744;50.960;4.136;2022-09-02T06:26:22;100940.16;;;15.77;72.92
51271;BME280;37744;50.960;4.136;2022-09-02T06:28:48;100934.59;;;15.81;72.79
51271;BME280;37744;50.960;4.136;2022-09-02T06:31:17;100935.97;;;15.89;73.16
51271;BME280;37744;50.960;4.136;2022-09-02T06:33:44;100936.69;;;15.92;73.47
51271;BME280;37744;50.960;4.136;2022-09-02T06:36:14;100934.78;;;15.94;73.70
51271;BME280;37744;50.960;4.136;2022-09-02T06:38:42;100936.31;;;15.99;73.86
51271;BME280;37744;50.960;4.136;2022-09-02T06:41:10;100935.56;;;15.96;74.07
51271;BME280;37744;50.960;4.136;2022-09-02T06:43:36;100929.06;;;16.02;74.10
51271;BME280;37744;50.960;4.136;2022-09-02T06:46:01;100929.25;;;15.99;74.20
51271;BME280;37744;50.960;4.136;2022-09-02T06:48:27;100926.94;;;16.09;73.81
51271;BME280;37744;50.960;4.136;2022-09-02T06:50:52;100926.84;;;16.10;73.74
51271;BME280;37744;50.960;4.136;2022-09-02T06:53:19;100928.22;;;16.18;74.15
51271;BME280;37744;50.960;4.136;2022-09-02T06:55:45;100923.69;;;16.20;74.65
51271;BME280;37744;50.960;4.136;2022-09-02T06:58:12;100931.38;;;16.24;74.71
51271;BME280;37744;50.960;4.136;2022-09-02T07:00:38;100934.72;;;16.28;74.44
51271;BME280;37744;50.960;4.136;2022-09-02T07:03:05;100928.31;;;16.32;74.86
51271;BME280;37744;50.960;4.136;2022-09-02T07:06:07;100926.16;;;16.39;74.56
51271;BME280;37744;50.960;4.136;2022-09-02T07:08:40;100924.88;;;16.46;74.75
51271;BME280;37744;50.960;4.136;2022-09-02T07:11:07;100918.50;;;16.49;74.97
51271;BME280;37744;50.960;4.136;2022-09-02T07:13:38;100915.59;;;16.53;75.13
51271;BME280;37744;50.960;4.136;2022-09-02T07:16:04;100917.72;;;16.63;75.02
51271;BME280;37744;50.960;4.136;2022-09-02T07:18:30;100911.03;;;16.72;74.75
51271;BME280;37744;50.960;4.136;2022-09-02T07:20:56;100915.03;;;16.79;74.24
51271;BME280;37744;50.960;4.136;2022-09-02T07:23:21;100912.38;;;16.79;75.11
51271;BME280;37744;50.960;4.136;2022-09-02T07:25:46;100907.56;;;16.86;75.02
51271;BME280;37744;50.960;4.136;2022-09-02T07:28:12;100914.31;;;16.91;74.86
51271;BME280;37744;50.960;4.136;2022-09-02T07:30:40;100912.13;;;16.98;75.08
51271;BME280;37744;50.960;4.136;2022-09-02T07:33:06;100902.78;;;17.07;74.97
51271;BME280;37744;50.960;4.136;2022-09-02T07:35:32;100910.00;;;17.19;74.81
51271;BME280;37744;50.960;4.136;2022-09-02T07:37:57;100904.72;;;17.34;74.08
51271;BME280;37744;50.960;4.136;2022-09-02T07:40:23;100903.50;;;17.40;73.68
51271;BME280;37744;50.960;4.136;2022-09-02T07:42:49;100899.69;;;17.44;74.35
51271;BME280;37744;50.960;4.136;2022-09-02T07:45:15;100899.38;;;17.63;74.59
51271;BME280;37744;50.960;4.136;2022-09-02T07:47:40;100898.03;;;17.85;73.07
51271;BME280;37744;50.960;4.136;2022-09-02T07:50:06;100903.81;;;17.91;72.48
51271;BME280;37744;50.960;4.136;2022-09-02T07:52:32;100898.59;;;18.04;71.64
51271;BME280;37744;50.960;4.136;2022-09-02T07:54:57;100907.31;;;18.06;71.97
51271;BME280;37744;50.960;4.136;2022-09-02T07:57:23;100903.50;;;18.11;71.03
51271;BME280;37744;50.960;4.136;2022-09-02T07:59:48;100891.69;;;18.29;70.90
51271;BME280;37744;50.960;4.136;2022-09-02T08:02:14;100894.47;;;18.41;70.31
51271;BME280;37744;50.960;4.136;2022-09-02T08:04:42;100900.69;;;18.54;69.23
51271;BME280;37744;50.960;4.136;2022-09-02T08:07:08;100901.78;;;18.65;69.16
51271;BME280;37744;50.960;4.136;2022-09-02T08:09:34;100903.94;;;18.85;69.02
51271;BME280;37744;50.960;4.136;2022-09-02T08:11:59;100895.53;;;18.91;68.10
51271;BME280;37744;50.960;4.136;2022-09-02T08:14:25;100900.25;;;19.01;67.81
51271;BME280;37744;50.960;4.136;2022-09-02T08:16:53;100895.25;;;19.09;67.64
51271;BME280;37744;50.960;4.136;2022-09-02T08:19:20;100890.16;;;19.19;66.73
51271;BME280;37744;50.960;4.136;2022-09-02T08:21:46;100900.25;;;19.40;66.07
51271;BME280;37744;50.960;4.136;2022-09-02T08:24:11;100887.34;;;19.46;65.21
51271;BME280;37744;50.960;4.136;2022-09-02T08:26:36;100890.34;;;19.55;65.47
51271;BME280;37744;50.960;4.136;2022-09-02T08:29:06;100892.63;;;19.72;65.83
51271;BME280;37744;50.960;4.136;2022-09-02T08:31:32;100888.13;;;19.86;64.64
51271;BME280;37744;50.960;4.136;2022-09-02T08:33:59;100886.50;;;19.96;63.51
51271;BME280;37744;50.960;4.136;2022-09-02T08:36:25;100890.97;;;20.09;63.35
51271;BME280;37744;50.960;4.136;2022-09-02T08:38:51;100893.56;;;20.22;62.63
51271;BME280;37744;50.960;4.136;2022-09-02T08:41:25;100891.97;;;20.19;61.35
51271;BME280;37744;50.960;4.136;2022-09-02T08:43:54;100884.81;;;20.20;61.75
51271;BME280;37744;50.960;4.136;2022-09-02T08:46:23;100881.16;;;20.34;63.29
51271;BME280;37744;50.960;4.136;2022-09-02T08:53:57;100878.81;;;21.00;59.59
51271;BME280;37744;50.960;4.136;2022-09-02T08:56:24;100882.47;;;21.11;59.67
51271;BME280;37744;50.960;4.136;2022-09-02T08:58:53;100881.84;;;21.19;59.57
51271;BME280;37744;50.960;4.136;2022-09-02T09:01:28;100878.22;;;21.20;58.77
51271;BME280;37744;50.960;4.136;2022-09-02T09:07:07;100874.81;;;21.40;58.66
51271;BME280;37744;50.960;4.136;2022-09-02T09:09:49;100878.72;;;21.59;58.00
51271;BME280;37744;50.960;4.136;2022-09-02T09:12:36;100869.22;;;21.66;57.55
51271;BME280;37744;50.960;4.136;2022-09-02T09:17:53;100874.06;;;21.95;57.76
51271;BME280;37744;50.960;4.136;2022-09-02T09:20:27;100871.19;;;22.08;56.41
51271;BME280;37744;50.960;4.136;2022-09-02T09:23:01;100869.38;;;22.09;56.07
51271;BME280;37744;50.960;4.136;2022-09-02T09:25:31;100871.03;;;22.21;56.09
51271;BME280;37744;50.960;4.136;2022-09-02T09:27:57;100863.09;;;22.31;56.13
51271;BME280;37744;50.960;4.136;2022-09-02T09:30:22;100860.13;;;22.46;54.55
51271;BME280;37744;50.960;4.136;2022-09-02T09:32:51;100866.06;;;22.49;55.28
51271;BME280;37744;50.960;4.136;2022-09-02T09:35:20;100860.81;;;22.59;54.83
51271;BME280;37744;50.960;4.136;2022-09-02T09:37:47;100869.59;;;22.71;54.62
51271;BME280;37744;50.960;4.136;2022-09-02T09:45:35;100860.75;;;23.02;54.13
51271;BME280;37744;50.960;4.136;2022-09-02T09:48:27;100856.88;;;23.16;53.42
51271;BME280;37744;50.960;4.136;2022-09-02T09:53:23;100851.94;;;23.32;52.87
51271;BME280;37744;50.960;4.136;2022-09-02T09:56:00;100851.81;;;23.44;53.15
51271;BME280;37744;50.960;4.136;2022-09-02T09:58:32;100847.94;;;23.68;52.96
51271;BME280;37744;50.960;4.136;2022-09-02T10:06:34;100843.31;;;23.99;50.57
51271;BME280;37744;50.960;4.136;2022-09-02T10:11:53;100848.16;;;24.25;49.38
51271;BME280;37744;50.960;4.136;2022-09-02T10:14:19;100845.47;;;24.25;49.37
51271;BME280;37744;50.960;4.136;2022-09-02T10:19:30;100842.22;;;24.41;49.32
51271;BME280;37744;50.960;4.136;2022-09-02T10:22:26;100837.69;;;24.52;49.04
51271;BME280;37744;50.960;4.136;2022-09-02T10:30:57;100830.84;;;24.67;48.26
51271;BME280;37744;50.960;4.136;2022-09-02T10:36:23;100814.47;;;24.70;48.80
51271;BME280;37744;50.960;4.136;2022-09-02T10:38:53;100815.28;;;24.81;48.64
51271;BME280;37744;50.960;4.136;2022-09-02T10:41:40;100799.41;;;24.97;47.19
51271;BME280;37744;50.960;4.136;2022-09-02T10:57:44;100786.69;;;25.55;45.44
51271;BME280;37744;50.960;4.136;2022-09-02T11:00:18;100784.09;;;25.64;44.20
51271;BME280;37744;50.960;4.136;2022-09-02T11:05:43;100784.78;;;25.84;44.54
51271;BME280;37744;50.960;4.136;2022-09-02T11:08:17;100776.94;;;25.91;44.18
51271;BME280;37744;50.960;4.136;2022-09-02T11:11:10;100764.25;;;26.01;43.44
51271;BME280;37744;50.960;4.136;2022-09-02T11:13:52;100765.59;;;26.05;43.97
51271;BME280;37744;50.960;4.136;2022-09-02T11:24:32;100759.69;;;26.20;43.45
51271;BME280;37744;50.960;4.136;2022-09-02T11:27:10;100750.75;;;26.37;43.46
51271;BME280;37744;50.960;4.136;2022-09-02T11:32:58;100758.59;;;26.30;42.92
51271;BME280;37744;50.960;4.136;2022-09-02T11:35:28;100753.22;;;26.57;42.30
51271;BME280;37744;50.960;4.136;2022-09-02T11:38:01;100753.97;;;26.67;41.46
51271;BME280;37744;50.960;4.136;2022-09-02T11:40:31;100748.63;;;26.84;41.88
51271;BME280;37744;50.960;4.136;2022-09-02T11:46:10;100731.97;;;26.54;41.31
51271;BME280;37744;50.960;4.136;2022-09-02T11:54:38;100740.75;;;26.56;41.23
51271;BME280;37744;50.960;4.136;2022-09-02T11:57:05;100740.03;;;26.46;40.49
51271;BME280;37744;50.960;4.136;2022-09-02T12:02:33;100734.94;;;26.16;41.20
51271;BME280;37744;50.960;4.136;2022-09-02T12:08:08;100729.13;;;27.33;39.08
51271;BME280;37744;50.960;4.136;2022-09-02T12:21:19;100732.41;;;27.87;35.39
51271;BME280;37744;50.960;4.136;2022-09-02T12:26:15;100726.16;;;28.03;35.71
51271;BME280;37744;50.960;4.136;2022-09-02T12:28:45;100726.66;;;27.65;35.98
51271;BME280;37744;50.960;4.136;2022-09-02T12:31:35;100722.63;;;27.94;36.13
51271;BME280;37744;50.960;4.136;2022-09-02T12:33:59;100721.41;;;28.46;35.73
51271;BME280;37744;50.960;4.136;2022-09-02T12:47:25;100711.53;;;29.10;33.34
51271;BME280;37744;50.960;4.136;2022-09-02T12:50:18;100714.16;;;29.18;33.45
51271;BME280;37744;50.960;4.136;2022-09-02T12:52:48;100708.94;;;29.40;32.67
51271;BME280;37744;50.960;4.136;2022-09-02T12:55:28;100707.28;;;29.39;31.70
51271;BME280;37744;50.960;4.136;2022-09-02T12:58:07;100708.56;;;29.52;31.75
51271;BME280;37744;50.960;4.136;2022-09-02T13:06:10;100697.84;;;29.35;32.60
51271;BME280;37744;50.960;4.136;2022-09-02T13:08:58;100689.13;;;29.71;31.66
51271;BME280;37744;50.960;4.136;2022-09-02T13:17:20;100686.72;;;30.15;30.68
51271;BME280;37744;50.960;4.136;2022-09-02T13:30:51;100669.91;;;30.34;29.20
51271;BME280;37744;50.960;4.136;2022-09-02T13:33:21;100672.59;;;30.34;28.65
51271;BME280;37744;50.960;4.136;2022-09-02T13:35:52;100664.88;;;30.46;28.35
51271;BME280;37744;50.960;4.136;2022-09-02T13:38:22;100659.69;;;30.52;28.78
51271;BME280;37744;50.960;4.136;2022-09-02T13:40:48;100657.41;;;30.64;28.47
51271;BME280;37744;50.960;4.136;2022-09-02T13:43:18;100652.91;;;30.41;28.62
51271;BME280;37744;50.960;4.136;2022-09-02T13:45:45;100652.69;;;30.57;27.89
51271;BME280;37744;50.960;4.136;2022-09-02T13:48:16;100643.28;;;30.68;27.84
51271;BME280;37744;50.960;4.136;2022-09-02T13:50:48;100645.22;;;30.59;27.93
51271;BME280;37744;50.960;4.136;2022-09-02T13:55:52;100639.72;;;30.68;28.08
51271;BME280;37744;50.960;4.136;2022-09-02T13:58:23;100626.94;;;30.31;28.30
51271;BME280;37744;50.960;4.136;2022-09-02T14:00:56;100627.97;;;29.62;28.83
51271;BME280;37744;50.960;4.136;2022-09-02T14:03:22;100620.19;;;29.20;29.72
51271;BME280;37744;50.960;4.136;2022-09-02T14:05:50;100626.09;;;28.92;29.37
51271;BME280;37744;50.960;4.136;2022-09-02T14:08:22;100618.34;;;29.44;28.82
51271;BME280;37744;50.960;4.136;2022-09-02T14:10:48;100615.84;;;30.11;28.72
51271;BME280;37744;50.960;4.136;2022-09-02T14:13:16;100625.88;;;30.62;27.74
51271;BME280;37744;50.960;4.136;2022-09-02T14:15:42;100620.38;;;30.93;27.55
51271;BME280;37744;50.960;4.136;2022-09-02T14:21:02;100618.03;;;30.53;28.21
51271;BME280;37744;50.960;4.136;2022-09-02T14:23:37;100613.03;;;30.04;28.34
51271;BME280;37744;50.960;4.136;2022-09-02T14:26:04;100605.41;;;29.85;29.12
51271;BME280;37744;50.960;4.136;2022-09-02T14:28:32;100603.75;;;29.84;28.94
51271;BME280;37744;50.960;4.136;2022-09-02T14:31:24;100597.44;;;30.06;28.65
51271;BME280;37744;50.960;4.136;2022-09-02T14:33:51;100595.78;;;30.72;27.76
51271;BME280;37744;50.960;4.136;2022-09-02T14:43:47;100586.91;;;31.51;25.26
51271;BME280;37744;50.960;4.136;2022-09-02T14:46:22;100587.25;;;30.75;26.45
51271;BME280;37744;50.960;4.136;2022-09-02T14:49:08;100587.59;;;30.87;25.96
51271;BME280;37744;50.960;4.136;2022-09-02T14:51:38;100588.50;;;30.95;25.92
51271;BME280;37744;50.960;4.136;2022-09-02T14:54:07;100575.50;;;30.53;26.65
51271;BME280;37744;50.960;4.136;2022-09-02T14:59:08;100574.28;;;30.56;26.21
51271;BME280;37744;50.960;4.136;2022-09-02T15:01:40;100581.53;;;30.03;27.01
51271;BME280;37744;50.960;4.136;2022-09-02T15:04:07;100573.31;;;29.82;27.59
51271;BME280;37744;50.960;4.136;2022-09-02T15:06:33;100580.72;;;30.70;26.88
51271;BME280;37744;50.960;4.136;2022-09-02T15:08:58;100577.53;;;31.25;26.31
51271;BME280;37744;50.960;4.136;2022-09-02T15:11:24;100567.75;;;31.09;24.71
51271;BME280;37744;50.960;4.136;2022-09-02T15:13:49;100568.97;;;30.47;26.21
51271;BME280;37744;50.960;4.136;2022-09-02T15:16:14;100578.94;;;30.99;24.95
51271;BME280;37744;50.960;4.136;2022-09-02T15:18:40;100572.00;;;30.74;25.21
51271;BME280;37744;50.960;4.136;2022-09-02T15:21:05;100578.66;;;31.66;24.55